createdAt,value
2024-05-09T00:00:42.019Z,101546.00
2024-05-09T00:03:11.265Z,101550.00
2024-05-09T00:05:43.492Z,101549.00
2024-05-09T00:08:11.763Z,101552.00
2024-05-09T00:10:40.713Z,101539.00
2024-05-09T00:13:09.759Z,101540.00
2024-05-09T00:15:37.793Z,101540.00
2024-05-09T00:18:07.401Z,101540.00
2024-05-09T00:20:39.483Z,101539.00
2024-05-09T00:23:09.542Z,101543.00
2024-05-09T00:25:38.243Z,101546.00
2024-05-09T00:28:06.310Z,101547.00
2024-05-09T00:30:36.346Z,101547.00
2024-05-09T00:33:06.545Z,101551.00
2024-05-09T00:35:35.531Z,101547.00
2024-05-09T00:38:03.485Z,101552.00
2024-05-09T00:40:39.802Z,101544.00
2024-05-09T00:43:10.500Z,101543.00
2024-05-09T00:45:38.343Z,101543.00
2024-05-09T00:48:08.002Z,101546.00
2024-05-09T00:50:38.544Z,101539.00
2024-05-09T00:53:06.853Z,101545.00
2024-05-09T00:55:35.386Z,101546.00
2024-05-09T00:58:03.505Z,101538.00
2024-05-09T01:00:37.948Z,101541.00
2024-05-09T01:03:09.037Z,101545.00
2024-05-09T01:05:39.603Z,101541.00
2024-05-09T01:08:08.157Z,101544.00
2024-05-09T01:10:36.686Z,101539.00
2024-05-09T01:13:05.226Z,101546.00
2024-05-09T01:15:37.766Z,101532.00
2024-05-09T01:18:10.427Z,101533.00
2024-05-09T01:20:42.494Z,101530.00
2024-05-09T01:23:14.557Z,101537.00
2024-05-09T01:25:44.371Z,101537.00
2024-05-09T01:28:12.215Z,101536.00
2024-05-09T01:30:39.946Z,101535.00
2024-05-09T01:33:09.655Z,101531.00
2024-05-09T01:35:42.070Z,101537.00
2024-05-09T01:38:13.919Z,101533.00
2024-05-09T01:40:45.280Z,101530.00
2024-05-09T01:43:13.015Z,101534.00
2024-05-09T01:45:41.754Z,101537.00
2024-05-09T01:48:10.473Z,101543.00
2024-05-09T01:50:41.796Z,101542.00
2024-05-09T01:53:11.697Z,101531.00
2024-05-09T01:55:39.494Z,101540.00
2024-05-09T01:58:07.686Z,101548.00
2024-05-09T02:00:40.286Z,101547.00
2024-05-09T02:03:12.677Z,101554.00
2024-05-09T02:05:43.601Z,101536.00
2024-05-09T02:08:18.328Z,101544.00
2024-05-09T02:10:47.810Z,101533.00
2024-05-09T02:13:16.513Z,101538.00
2024-05-09T02:15:44.571Z,101530.00
2024-05-09T02:18:12.990Z,101536.00
2024-05-09T02:20:41.975Z,101531.00
2024-05-09T02:23:10.226Z,101529.00
2024-05-09T02:25:38.148Z,101530.00
2024-05-09T02:28:06.073Z,101531.00
2024-05-09T02:30:39.592Z,101534.00
2024-05-09T02:33:11.427Z,101530.00
2024-05-09T02:35:41.127Z,101533.00
2024-05-09T02:38:09.304Z,101522.00
2024-05-09T02:40:39.121Z,101527.00
2024-05-09T02:43:08.879Z,101527.00
2024-05-09T02:45:38.089Z,101524.00
2024-05-09T02:48:06.179Z,101527.00
2024-05-09T02:50:38.486Z,101526.00
2024-05-09T02:53:08.988Z,101528.00
2024-05-09T02:55:38.029Z,101529.00
2024-05-09T02:58:09.238Z,101529.00
2024-05-09T03:00:40.551Z,101525.00
2024-05-09T03:03:15.093Z,101531.00
2024-05-09T03:05:44.383Z,101528.00
2024-05-09T03:08:12.408Z,101526.00
2024-05-09T03:10:40.585Z,101529.00
2024-05-09T03:13:08.930Z,101529.00
2024-05-09T03:15:36.870Z,101531.00
2024-05-09T03:18:05.855Z,101520.00
2024-05-09T03:20:35.732Z,101528.00
2024-05-09T03:23:06.554Z,101529.00
2024-05-09T03:25:34.619Z,101519.00
2024-05-09T03:28:02.439Z,101531.00
2024-05-09T03:30:39.853Z,101522.00
2024-05-09T03:33:17.719Z,101525.00
2024-05-09T03:35:47.378Z,101526.00
2024-05-09T03:38:15.743Z,101531.00
2024-05-09T03:40:50.563Z,101539.00
2024-05-09T03:43:19.445Z,101533.00
2024-05-09T03:45:48.204Z,101526.00
2024-05-09T03:48:17.022Z,101524.00
2024-05-09T03:50:45.290Z,101528.00
2024-05-09T03:53:13.932Z,101520.00
2024-05-09T03:55:41.892Z,101523.00
2024-05-09T03:58:09.652Z,101525.00
2024-05-09T04:00:39.509Z,101527.00
2024-05-09T04:03:11.023Z,101524.00
2024-05-09T04:05:41.925Z,101527.00
2024-05-09T04:08:11.179Z,101532.00
2024-05-09T04:10:39.269Z,101534.00
2024-05-09T04:13:07.024Z,101533.00
2024-05-09T04:15:34.847Z,101531.00
2024-05-09T04:18:03.187Z,101525.00
2024-05-09T04:20:38.078Z,101538.00
2024-05-09T04:23:09.589Z,101540.00
2024-05-09T04:25:37.760Z,101541.00
2024-05-09T04:28:06.132Z,101536.00
2024-05-09T04:30:38.440Z,101537.00
2024-05-09T04:33:13.064Z,101544.00
2024-05-09T04:35:42.960Z,101545.00
2024-05-09T04:38:11.534Z,101545.00
2024-05-09T04:40:39.546Z,101537.00
2024-05-09T04:43:07.925Z,101550.00
2024-05-09T04:45:35.802Z,101545.00
2024-05-09T04:48:04.230Z,101552.00
2024-05-09T04:50:38.244Z,101546.00
2024-05-09T04:53:08.793Z,101541.00
2024-05-09T04:55:38.478Z,101547.00
2024-05-09T04:58:15.333Z,101541.00
2024-05-09T05:00:43.136Z,101551.00
2024-05-09T05:03:14.505Z,101556.00
2024-05-09T05:05:45.083Z,101558.00
2024-05-09T05:08:18.196Z,101557.00
2024-05-09T05:10:48.190Z,101559.00
2024-05-09T05:13:18.413Z,101550.00
2024-05-09T05:15:47.483Z,101561.00
2024-05-09T05:18:15.689Z,101559.00
2024-05-09T05:20:45.203Z,101558.00
2024-05-09T05:23:13.906Z,101570.00
2024-05-09T05:25:43.201Z,101563.00
2024-05-09T05:28:11.108Z,101568.00
2024-05-09T05:30:38.844Z,101574.00
2024-05-09T05:33:07.081Z,101568.00
2024-05-09T05:35:35.132Z,101569.00
2024-05-09T05:38:03.442Z,101578.00
2024-05-09T05:40:36.474Z,101571.00
2024-05-09T05:43:06.259Z,101565.00
2024-05-09T05:45:33.973Z,101566.00
2024-05-09T05:48:03.514Z,101575.00
2024-05-09T05:50:36.002Z,101567.00
2024-05-09T05:53:06.132Z,101567.00
2024-05-09T05:55:34.985Z,101576.00
2024-05-09T05:58:02.925Z,101570.00
2024-05-09T06:00:38.214Z,101575.00
2024-05-09T06:03:08.594Z,101572.00
2024-05-09T06:05:36.800Z,101583.00
2024-05-09T06:08:04.783Z,101575.00
2024-05-09T06:10:38.271Z,101581.00
2024-05-09T06:13:09.110Z,101575.00
2024-05-09T06:15:36.818Z,101570.00
2024-05-09T06:18:08.422Z,101568.00
2024-05-09T06:20:38.108Z,101579.00
2024-05-09T06:23:06.854Z,101573.00
2024-05-09T06:25:38.440Z,101578.00
2024-05-09T06:28:06.378Z,101581.00
2024-05-09T06:30:40.206Z,101573.00
2024-05-09T06:33:11.318Z,101576.00
2024-05-09T06:35:41.228Z,101570.00
2024-05-09T06:38:09.706Z,101569.00
2024-05-09T06:40:41.020Z,101577.00
2024-05-09T06:43:13.923Z,101579.00
2024-05-09T06:45:42.133Z,101576.00
2024-05-09T06:48:10.459Z,101581.00
2024-05-09T06:50:39.830Z,101593.00
2024-05-09T06:53:11.330Z,101603.00
2024-05-09T06:55:39.363Z,101586.00
2024-05-09T06:58:07.427Z,101588.00
2024-05-09T07:00:39.515Z,101581.00
2024-05-09T07:03:14.970Z,101588.00
2024-05-09T07:05:48.831Z,101591.00
2024-05-09T07:08:17.803Z,101589.00
2024-05-09T07:10:47.063Z,101591.00
2024-05-09T07:13:15.676Z,101585.00
2024-05-09T07:15:43.786Z,101583.00
2024-05-09T07:18:11.989Z,101587.00
2024-05-09T07:20:40.776Z,101590.00
2024-05-09T07:23:10.148Z,101589.00
2024-05-09T07:25:41.424Z,101595.00
2024-05-09T07:28:17.221Z,101594.00
2024-05-09T07:30:45.998Z,101589.00
2024-05-09T07:33:18.670Z,101590.00
2024-05-09T07:35:47.386Z,101588.00
2024-05-09T07:38:15.159Z,101596.00
2024-05-09T07:40:43.330Z,101592.00
2024-05-09T07:43:17.648Z,101583.00
2024-05-09T07:45:51.961Z,101582.00
2024-05-09T07:52:39.131Z,101593.00
2024-05-09T07:53:47.649Z,101580.00
2024-05-09T07:56:20.254Z,101571.00
2024-05-09T07:58:50.711Z,101578.00
2024-05-09T08:01:19.644Z,101576.00
2024-05-09T08:03:47.791Z,101579.00
2024-05-09T08:06:15.682Z,101579.00
2024-05-09T08:08:43.574Z,101571.00
2024-05-09T08:11:11.655Z,101568.00
2024-05-09T08:13:39.725Z,101572.00
2024-05-09T08:16:07.741Z,101559.00
2024-05-09T08:18:36.462Z,101563.00
2024-05-09T08:21:04.164Z,101564.00
2024-05-09T08:23:32.029Z,101568.00
2024-05-09T08:26:01.607Z,101573.00
2024-05-09T08:28:32.413Z,101570.00
2024-05-09T08:31:01.754Z,101566.00
2024-05-09T08:33:33.605Z,101563.00
2024-05-09T08:36:01.443Z,101571.00
2024-05-09T08:38:29.389Z,101564.00
2024-05-09T08:40:57.481Z,101566.00
2024-05-09T08:43:28.258Z,101562.00
2024-05-09T08:45:59.284Z,101569.00
2024-05-09T08:48:27.024Z,101573.00
2024-05-09T08:50:54.933Z,101569.00
2024-05-09T08:53:22.649Z,101569.00
2024-05-09T08:55:50.333Z,101573.00
2024-05-09T08:58:19.691Z,101579.00
2024-05-09T09:00:48.867Z,101573.00
2024-05-09T09:03:22.168Z,101572.00
2024-05-09T09:05:59.817Z,101566.00
2024-05-09T09:08:27.834Z,101574.00
2024-05-09T09:10:56.257Z,101576.00
2024-05-09T09:13:24.030Z,101568.00
2024-05-09T09:15:52.304Z,101567.00
2024-05-09T09:18:20.797Z,101577.00
2024-05-09T09:20:48.623Z,101570.00
2024-05-09T09:23:16.389Z,101567.00
2024-05-09T09:25:44.064Z,101574.00
2024-05-09T09:28:14.901Z,101572.00
2024-05-09T09:30:43.334Z,101574.00
2024-05-09T09:33:12.261Z,101578.00
2024-05-09T09:35:41.141Z,101574.00
2024-05-09T09:38:10.811Z,101565.00
2024-05-09T09:40:48.335Z,101572.00
2024-05-09T09:43:20.740Z,101568.00
2024-05-09T09:45:53.032Z,101565.00
2024-05-09T09:48:22.454Z,101568.00
2024-05-09T09:50:54.807Z,101564.00
2024-05-09T09:53:23.495Z,101567.00
2024-05-09T09:55:51.943Z,101571.00
2024-05-09T09:58:19.830Z,101571.00
2024-05-09T10:00:48.079Z,101560.00
2024-05-09T10:03:16.156Z,101563.00
2024-05-09T10:05:47.043Z,101563.00
2024-05-09T10:08:15.340Z,101561.00
2024-05-09T10:10:45.871Z,101566.00
2024-05-09T10:13:16.400Z,101563.00
2024-05-09T10:15:51.077Z,101566.00
2024-05-09T10:18:28.378Z,101564.00
2024-05-09T10:20:59.916Z,101550.00
2024-05-09T10:23:31.229Z,101559.00
2024-05-09T10:26:01.837Z,101562.00
2024-05-09T10:28:30.376Z,101552.00
2024-05-09T10:31:08.382Z,101543.00
2024-05-09T10:33:50.202Z,101547.00
2024-05-09T10:36:19.724Z,101545.00
2024-05-09T10:38:47.493Z,101543.00
2024-05-09T10:41:16.429Z,101544.00
2024-05-09T10:43:44.159Z,101541.00
2024-05-09T10:46:12.438Z,101537.00
2024-05-09T10:48:42.289Z,101527.00
2024-05-09T10:51:10.064Z,101528.00
2024-05-09T10:53:44.440Z,101536.00
2024-05-09T10:56:13.610Z,101533.00
2024-05-09T10:58:41.581Z,101526.00
2024-05-09T11:01:10.479Z,101531.00
2024-05-09T11:03:41.810Z,101535.00
2024-05-09T11:06:11.584Z,101529.00
2024-05-09T11:08:39.819Z,101530.00
2024-05-09T11:11:08.719Z,101524.00
2024-05-09T11:13:40.329Z,101527.00
2024-05-09T11:16:21.788Z,101523.00
2024-05-09T11:18:54.057Z,101520.00
2024-05-09T11:21:22.012Z,101522.00
2024-05-09T11:23:50.883Z,101514.00
2024-05-09T11:26:19.731Z,101515.00
2024-05-09T11:28:47.546Z,101508.00
2024-05-09T11:31:15.571Z,101506.00
2024-05-09T11:33:44.176Z,101504.00
2024-05-09T11:36:14.717Z,101506.00
2024-05-09T11:38:42.722Z,101499.00
2024-05-09T11:41:16.672Z,101494.00
2024-05-09T11:43:44.780Z,101495.00
2024-05-09T11:46:14.596Z,101494.00
2024-05-09T11:48:45.476Z,101488.00
2024-05-09T11:51:13.213Z,101483.00
2024-05-09T11:53:41.138Z,101488.00
2024-05-09T11:56:10.500Z,101489.00
2024-05-09T11:58:39.771Z,101494.00
2024-05-09T12:01:07.591Z,101491.00
2024-05-09T12:03:37.985Z,101487.00
2024-05-09T12:06:06.205Z,101485.00
2024-05-09T12:08:34.540Z,101481.00
2024-05-09T12:11:02.345Z,101480.00
2024-05-09T12:13:30.062Z,101479.00
2024-05-09T12:15:59.937Z,101481.00
2024-05-09T12:18:27.874Z,101487.00
2024-05-09T12:20:55.529Z,101476.00
2024-05-09T12:23:23.308Z,101479.00
2024-05-09T12:25:50.951Z,101474.00
2024-05-09T12:28:19.027Z,101476.00
2024-05-09T12:30:47.233Z,101472.00
2024-05-09T12:33:19.917Z,101477.00
2024-05-09T12:35:50.233Z,101479.00
2024-05-09T12:38:18.718Z,101474.00
2024-05-09T12:40:46.549Z,101477.00
2024-05-09T12:43:14.423Z,101473.00
2024-05-09T12:45:42.367Z,101472.00
2024-05-09T12:48:12.545Z,101472.00
2024-05-09T12:50:41.531Z,101463.00
2024-05-09T12:53:10.043Z,101465.00
2024-05-09T12:55:45.098Z,101469.00
2024-05-09T12:58:22.831Z,101460.00
2024-05-09T13:00:53.785Z,101456.00
2024-05-09T13:03:22.204Z,101454.00
2024-05-09T13:05:50.632Z,101453.00
2024-05-09T13:08:18.340Z,101451.00
2024-05-09T13:10:46.230Z,101444.00
2024-05-09T13:13:14.637Z,101426.00
2024-05-09T13:15:43.124Z,101440.00
2024-05-09T13:18:10.938Z,101435.00
2024-05-09T13:20:38.649Z,101433.00
2024-05-09T13:23:07.895Z,101435.00
2024-05-09T13:25:36.834Z,101429.00
2024-05-09T13:28:05.184Z,101421.00
2024-05-09T13:30:39.508Z,101419.00
2024-05-09T13:33:10.643Z,101420.00
2024-05-09T13:35:40.222Z,101423.00
2024-05-09T13:38:08.526Z,101418.00
2024-05-09T13:40:36.797Z,101411.00
2024-05-09T13:43:05.198Z,101413.00
2024-05-09T13:45:33.608Z,101415.00
2024-05-09T13:48:05.306Z,101422.00
2024-05-09T13:50:35.919Z,101419.00
2024-05-09T13:53:06.720Z,101418.00
2024-05-09T13:55:37.619Z,101411.00
2024-05-09T13:58:05.694Z,101408.00
2024-05-09T14:00:44.017Z,101397.00
2024-05-09T14:03:20.292Z,101395.00
2024-05-09T14:05:51.221Z,101389.00
2024-05-09T14:08:20.452Z,101391.00
2024-05-09T14:10:51.219Z,101385.00
2024-05-09T14:13:19.727Z,101391.00
2024-05-09T14:15:47.587Z,101390.00
2024-05-09T14:18:15.444Z,101378.00
2024-05-09T14:20:43.353Z,101378.00
2024-05-09T14:23:11.457Z,101378.00
2024-05-09T14:25:42.645Z,101375.00
2024-05-09T14:28:12.742Z,101378.00
2024-05-09T14:30:41.702Z,101364.00
2024-05-09T14:33:10.021Z,101376.00
2024-05-09T14:35:38.974Z,101371.00
2024-05-09T14:38:07.644Z,101367.00
2024-05-09T14:40:41.446Z,101357.00
2024-05-09T14:43:12.706Z,101361.00
2024-05-09T14:45:41.532Z,101350.00
2024-05-09T14:48:09.843Z,101347.00
2024-05-09T14:50:39.631Z,101340.00
2024-05-09T14:53:09.129Z,101344.00
2024-05-09T14:55:38.116Z,101342.00
2024-05-09T14:58:09.829Z,101330.00
2024-05-09T15:00:41.282Z,101338.00
2024-05-09T15:03:12.405Z,101328.00
2024-05-09T15:05:40.617Z,101331.00
2024-05-09T15:08:08.869Z,101328.00
2024-05-09T15:10:39.710Z,101331.00
2024-05-09T15:13:09.830Z,101326.00
2024-05-09T15:15:39.126Z,101327.00
2024-05-09T15:18:07.134Z,101314.00
2024-05-09T15:20:36.978Z,101312.00
2024-05-09T15:23:06.686Z,101317.00
2024-05-09T15:25:35.841Z,101319.00
2024-05-09T15:28:04.190Z,101312.00
2024-05-09T15:30:33.741Z,101312.00
2024-05-09T15:33:07.103Z,101313.00
2024-05-09T15:35:35.963Z,101306.00
2024-05-09T15:38:04.533Z,101307.00
2024-05-09T15:40:38.987Z,101305.00
2024-05-09T15:43:10.235Z,101301.00
2024-05-09T15:45:40.259Z,101304.00
2024-05-09T15:48:08.757Z,101304.00
2024-05-09T15:50:40.750Z,101301.00
2024-05-09T15:53:11.828Z,101290.00
2024-05-09T15:55:40.176Z,101292.00
2024-05-09T15:58:08.142Z,101289.00
2024-05-09T16:00:39.887Z,101284.00
2024-05-09T16:03:11.325Z,101285.00
2024-05-09T16:05:41.497Z,101281.00
2024-05-09T16:08:09.740Z,101282.00
2024-05-09T16:10:43.517Z,101276.00
2024-05-09T16:13:12.725Z,101282.00
2024-05-09T16:15:40.962Z,101283.00
2024-05-09T16:18:08.810Z,101279.00
2024-05-09T16:20:40.322Z,101279.00
2024-05-09T16:23:10.522Z,101281.00
2024-05-09T16:25:39.263Z,101284.00
2024-05-09T16:28:09.998Z,101281.00
2024-05-09T16:30:41.651Z,101280.00
2024-05-09T16:33:11.171Z,101281.00
2024-05-09T16:35:39.999Z,101283.00
2024-05-09T16:38:08.094Z,101279.00
2024-05-09T16:40:40.927Z,101283.00
2024-05-09T16:43:10.356Z,101273.00
2024-05-09T16:45:43.730Z,101275.00
2024-05-09T16:48:11.936Z,101270.00
2024-05-09T16:50:39.719Z,101276.00
2024-05-09T16:53:07.646Z,101265.00
2024-05-09T16:55:36.018Z,101274.00
2024-05-09T16:58:04.969Z,101264.00
2024-05-09T17:00:40.359Z,101268.00
2024-05-09T17:03:13.187Z,101267.00
2024-05-09T17:05:42.880Z,101266.00
2024-05-09T17:08:10.854Z,101268.00
2024-05-09T17:10:38.822Z,101269.00
2024-05-09T17:13:07.894Z,101257.00
2024-05-09T17:15:37.879Z,101260.00
2024-05-09T17:18:06.076Z,101258.00
2024-05-09T17:20:36.531Z,101259.00
2024-05-09T17:23:06.316Z,101260.00
2024-05-09T17:25:34.423Z,101262.00
2024-05-09T17:28:07.785Z,101260.00
2024-05-09T17:30:38.272Z,101252.00
2024-05-09T17:33:08.521Z,101256.00
2024-05-09T17:35:37.393Z,101255.00
2024-05-09T17:38:05.495Z,101251.00
2024-05-09T17:40:36.132Z,101245.00
2024-05-09T17:43:06.773Z,101242.00
2024-05-09T17:45:37.926Z,101246.00
2024-05-09T17:48:06.140Z,101245.00
2024-05-09T17:50:36.542Z,101243.00
2024-05-09T17:53:06.822Z,101243.00
2024-05-09T17:55:35.497Z,101232.00
2024-05-09T17:58:03.652Z,101243.00
2024-05-09T18:00:38.338Z,101237.00
2024-05-09T18:03:11.662Z,101242.00
2024-05-09T18:05:40.415Z,101246.00
2024-05-09T18:08:08.785Z,101244.00
2024-05-09T18:10:39.472Z,101243.00
2024-05-09T18:13:11.420Z,101239.00
2024-05-09T18:15:44.352Z,101240.00
2024-05-09T18:18:12.610Z,101241.00
2024-05-09T18:20:44.572Z,101246.00
2024-05-09T18:23:15.341Z,101241.00
2024-05-09T18:25:44.260Z,101243.00
2024-05-09T18:28:11.915Z,101237.00
2024-05-09T18:30:40.506Z,101238.00
2024-05-09T18:33:09.774Z,101245.00
2024-05-09T18:35:37.796Z,101244.00
2024-05-09T18:38:05.920Z,101239.00
2024-05-09T18:40:36.674Z,101247.00
2024-05-09T18:43:07.639Z,101244.00
2024-05-09T18:45:37.859Z,101250.00
2024-05-09T18:48:07.206Z,101247.00
2024-05-09T18:50:38.786Z,101245.00
2024-05-09T18:53:09.106Z,101250.00
2024-05-09T18:55:36.788Z,101253.00
2024-05-09T18:58:04.964Z,101251.00
2024-05-09T19:00:36.602Z,101259.00
2024-05-09T19:03:10.282Z,101263.00
2024-05-09T19:05:41.252Z,101255.00
2024-05-09T19:08:09.450Z,101262.00
2024-05-09T19:10:37.516Z,101262.00
2024-05-09T19:13:09.315Z,101256.00
2024-05-09T19:15:40.944Z,101265.00
2024-05-09T19:18:09.882Z,101260.00
2024-05-09T19:20:38.333Z,101262.00
2024-05-09T19:23:07.035Z,101266.00
2024-05-09T19:25:36.128Z,101255.00
2024-05-09T19:28:04.622Z,101263.00
2024-05-09T19:30:39.337Z,101265.00
2024-05-09T19:33:11.148Z,101268.00
2024-05-09T19:35:41.172Z,101268.00
2024-05-09T19:38:08.959Z,101264.00
2024-05-09T19:40:36.946Z,101267.00
2024-05-09T19:43:06.157Z,101276.00
2024-05-09T19:45:35.395Z,101274.00
2024-05-09T19:48:04.866Z,101280.00
2024-05-09T19:50:40.943Z,101274.00
2024-05-09T19:53:12.252Z,101276.00
2024-05-09T19:55:40.460Z,101276.00
2024-05-09T19:58:09.014Z,101278.00
2024-05-09T20:00:39.842Z,101277.00
2024-05-09T20:03:10.523Z,101289.00
2024-05-09T20:05:39.134Z,101275.00
2024-05-09T20:08:07.454Z,101271.00
2024-05-09T20:10:36.460Z,101280.00
2024-05-09T20:13:06.740Z,101274.00
2024-05-09T20:15:35.719Z,101278.00
2024-05-09T20:18:04.079Z,101275.00
2024-05-09T20:20:38.135Z,101280.00
2024-05-09T20:23:09.899Z,101284.00
2024-05-09T20:25:37.615Z,101284.00
2024-05-09T20:28:06.671Z,101279.00
2024-05-09T20:30:35.329Z,101278.00
2024-05-09T20:33:05.165Z,101275.00
2024-05-09T20:35:34.185Z,101280.00
2024-05-09T20:38:03.386Z,101285.00
2024-05-09T20:40:36.014Z,101278.00
2024-05-09T20:43:07.157Z,101278.00
2024-05-09T20:45:35.643Z,101280.00
2024-05-09T20:48:03.889Z,101274.00
2024-05-09T20:50:37.952Z,101269.00
2024-05-09T20:53:09.424Z,101268.00
2024-05-09T20:55:37.110Z,101272.00
2024-05-09T20:58:05.513Z,101269.00
2024-05-09T21:00:40.322Z,101277.00
2024-05-09T21:03:12.576Z,101269.00
2024-05-09T21:05:41.338Z,101265.00
2024-05-09T21:08:09.387Z,101258.00
2024-05-09T21:10:37.850Z,101262.00
2024-05-09T21:13:06.841Z,101263.00
2024-05-09T21:15:35.600Z,101262.00
2024-05-09T21:18:04.555Z,101262.00
2024-05-09T21:20:35.185Z,101268.00
2024-05-09T21:23:04.000Z,101260.00
2024-05-09T21:25:32.139Z,101259.00
2024-05-09T21:28:00.507Z,101258.00
2024-05-09T21:30:38.361Z,101253.00
2024-05-09T21:33:14.250Z,101253.00
2024-05-09T21:35:43.823Z,101257.00
2024-05-09T21:38:14.024Z,101248.00
2024-05-09T21:40:42.983Z,101260.00
2024-05-09T21:43:10.818Z,101248.00
2024-05-09T21:45:40.492Z,101254.00
2024-05-09T21:48:08.634Z,101252.00
2024-05-09T21:50:40.643Z,101248.00
2024-05-09T21:53:11.014Z,101249.00
2024-05-09T21:55:38.746Z,101250.00
2024-05-09T21:58:06.470Z,101246.00
2024-05-09T22:00:38.158Z,101241.00
2024-05-09T22:03:07.677Z,101246.00
2024-05-09T22:05:38.039Z,101247.00
2024-05-09T22:08:06.080Z,101256.00
2024-05-09T22:10:36.083Z,101246.00
2024-05-09T22:13:06.042Z,101248.00
2024-05-09T22:15:38.722Z,101249.00
2024-05-09T22:18:11.195Z,101254.00
2024-05-09T22:20:45.760Z,101253.00
2024-05-09T22:23:14.802Z,101254.00
2024-05-09T22:25:42.690Z,101255.00
2024-05-09T22:28:10.411Z,101266.00
2024-05-09T22:30:41.429Z,101266.00
2024-05-09T22:33:10.940Z,101266.00
2024-05-09T22:35:40.259Z,101268.00
2024-05-09T22:38:08.865Z,101268.00
2024-05-09T22:40:45.937Z,101274.00
2024-05-09T22:43:17.658Z,101266.00
2024-05-09T22:45:45.706Z,101262.00
2024-05-09T22:48:13.668Z,101270.00
2024-05-09T22:50:41.685Z,101262.00
2024-05-09T22:53:09.408Z,101266.00
2024-05-09T22:55:37.079Z,101263.00
2024-05-09T22:58:07.658Z,101260.00
2024-05-09T23:00:35.819Z,101266.00
2024-05-09T23:03:03.921Z,101260.00
2024-05-09T23:05:32.894Z,101262.00
2024-05-09T23:08:01.140Z,101256.00
2024-05-09T23:10:36.219Z,101253.00
2024-05-09T23:13:06.498Z,101255.00
2024-05-09T23:15:35.570Z,101254.00
2024-05-09T23:18:03.498Z,101254.00
2024-05-09T23:20:37.069Z,101249.00
2024-05-09T23:23:11.013Z,101248.00
2024-05-09T23:25:41.877Z,101250.00
2024-05-09T23:28:13.691Z,101242.00
2024-05-09T23:30:42.349Z,101239.00
2024-05-09T23:33:11.621Z,101233.00
2024-05-09T23:35:40.816Z,101241.00
2024-05-09T23:38:08.716Z,101235.00
2024-05-09T23:40:39.707Z,101248.00
2024-05-09T23:43:10.190Z,101241.00
2024-05-09T23:45:38.746Z,101241.00
2024-05-09T23:48:06.807Z,101239.00
2024-05-09T23:50:37.737Z,101239.00
2024-05-09T23:53:08.566Z,101240.00
2024-05-09T23:55:37.746Z,101233.00
2024-05-09T23:58:06.376Z,101233.00
